Time;durP1;ratioP1;P1;durP2;ratioP2;P2;SDS_P1;SDS_P2;PMS_P1;PMS_P2;Temp;Humidity;BMP_temperature;BMP_pressure;BME280_temperature;BME280_humidity;BME280_pressure;Samples;Min_cycle;Max_cycle;Signal;HPM_P1;HPM_P2
2022/04/25 00:02:13;;;;;;;39.03;6.90;;;;;;;16.61;53.18;94494.31;5091203;28;20020;-83
2022/04/25 00:04:39;;;;;;;48.20;6.82;;;;;;;16.30;53.19;94447.28;5093051;28;20030;-82
2022/04/25 00:07:04;;;;;;;30.67;6.97;;;;;;;16.83;53.97;94559.00;5092099;28;20048;-82
2022/04/25 00:09:30;;;;;;;46.25;7.50;;;;;;;16.82;54.17;94556.66;5092581;28;20032;-83
2022/04/25 00:11:55;;;;;;;44.22;6.97;;;;;;;16.56;54.27;94533.50;5090478;28;20590;-83
2022/04/25 00:14:21;;;;;;;33.42;6.68;;;;;;;16.44;55.34;94544.16;5079844;28;20025;-83
2022/04/25 00:16:46;;;;;;;30.88;6.60;;;;;;;15.73;55.23;94519.97;5083606;28;20742;-83
2022/04/25 00:19:12;;;;;;;48.10;7.07;;;;;;;15.80;55.50;94527.50;5090645;28;20513;-83
2022/04/25 00:21:38;;;;;;;39.50;7.18;;;;;;;15.91;55.67;94526.03;5091940;28;20068;-83
2022/04/25 00:24:04;;;;;;;44.08;7.32;;;;;;;15.53;55.44;94450.41;5075013;28;20028;-83
2022/04/25 00:26:29;;;;;;;35.75;5.97;;;;;;;15.84;56.79;94520.41;5089428;28;20512;-83
2022/04/25 00:28:55;;;;;;;31.42;6.93;;;;;;;16.08;56.66;94573.31;5072761;28;20032;-83
2022/04/25 00:31:20;;;;;;;30.42;6.32;;;;;;;15.39;55.64;94448.75;5089169;28;20028;-83
2022/04/25 00:33:46;;;;;;;41.45;8.00;;;;;;;15.98;55.94;94547.72;5092681;28;20020;-82
2022/04/25 00:36:11;;;;;;;45.35;6.75;;;;;;;16.39;55.39;94578.34;5088141;28;20036;-84
2022/04/25 00:38:37;;;;;;;44.03;7.60;;;;;;;15.66;56.64;94510.88;5072174;28;20078;-83
2022/04/25 00:41:06;;;;;;;41.35;7.72;;;;;;;14.08;56.72;94271.69;5070255;28;20036;-82
2022/04/25 00:43:31;;;;;;;50.55;7.60;;;;;;;16.22;56.03;94573.88;5071981;28;20025;-82
2022/04/25 00:45:57;;;;;;;37.97;7.03;;;;;;;16.16;55.85;94551.88;5078273;28;20043;-82
2022/04/25 00:48:22;;;;;;;33.25;6.15;;;;;;;16.14;56.28;94564.00;5092025;28;20072;-82
2022/04/25 00:50:48;;;;;;;44.20;7.57;;;;;;;15.72;57.04;94542.47;5080151;28;20096;-82
2022/04/25 00:53:13;;;;;;;36.75;7.95;;;;;;;15.76;57.31;94523.91;5083328;28;20032;-83
2022/04/25 00:55:39;;;;;;;35.13;7.10;;;;;;;15.77;56.70;94494.19;5079152;28;20388;-83
2022/04/25 00:58:05;;;;;;;36.30;7.25;;;;;;;15.19;58.71;94520.75;5073183;28;20045;-83
2022/04/25 01:00:32;;;;;;;34.38;6.43;;;;;;;14.88;59.31;94476.34;5071407;28;20032;-82
2022/04/25 01:02:57;;;;;;;44.60;7.68;;;;;;;15.70;58.15;94559.94;5071765;28;20036;-82
2022/04/25 01:05:23;;;;;;;32.90;6.28;;;;;;;14.65;58.40;94385.03;5072212;28;20020;-83
2022/04/25 01:07:48;;;;;;;41.80;7.70;;;;;;;15.23;58.81;94482.41;5090988;28;20028;-82
2022/04/25 01:10:14;;;;;;;27.50;7.03;;;;;;;15.69;58.89;94545.00;5097186;28;20035;-82
2022/04/25 01:12:40;;;;;;;42.78;7.68;;;;;;;14.95;59.51;94468.66;5101222;28;20048;-82
2022/04/25 01:15:09;;;;;;;33.65;6.88;;;;;;;15.51;59.92;94544.25;5094579;28;20036;-83
2022/04/25 01:17:35;;;;;;;36.08;7.93;;;;;;;15.13;59.63;94496.09;5081781;28;20031;-82
2022/04/25 01:20:01;;;;;;;43.30;7.25;;;;;;;14.52;60.40;94422.56;5092686;28;20489;-82
2022/04/25 01:22:55;;;;;;;34.47;8.40;;;;;;;15.43;60.13;94523.69;5087336;28;20042;-82
2022/04/25 01:28:05;;;;;;;32.67;7.85;;;;;;;15.60;59.30;94517.53;5089655;28;20042;-82
2022/04/25 01:30:32;;;;;;;38.85;7.63;;;;;;;14.90;59.62;94404.75;5093721;28;20028;-82
2022/04/25 01:32:58;;;;;;;32.33;8.10;;;;;;;14.41;60.22;94384.00;5092063;28;20039;-82
2022/04/25 01:35:24;;;;;;;41.28;7.65;;;;;;;15.51;59.43;94498.03;5071990;28;20408;-82
2022/04/25 01:37:50;;;;;;;27.17;7.22;;;;;;;15.16;59.78;94465.31;5090231;28;20035;-83
2022/04/25 01:40:15;;;;;;;41.35;7.75;;;;;;;15.17;59.21;94445.53;5070667;28;20033;-83
2022/04/25 01:42:42;;;;;;;32.53;7.93;;;;;;;14.99;59.29;94410.84;5068724;28;20055;-83
2022/04/25 01:45:08;;;;;;;32.33;7.38;;;;;;;14.76;59.88;94398.03;5073029;28;20028;-83
2022/04/25 01:47:33;;;;;;;35.42;7.55;;;;;;;14.99;59.82;94426.09;5090475;28;20027;-82
2022/04/25 01:49:59;;;;;;;34.53;6.68;;;;;;;14.73;59.75;94383.44;5089019;28;20024;-83
2022/04/25 01:52:30;;;;;;;34.28;7.30;;;;;;;15.63;59.18;94501.66;5088955;28;20050;-82
2022/04/25 01:54:57;;;;;;;35.65;8.43;;;;;;;15.61;59.71;94500.38;5080757;28;20035;-82
2022/04/25 01:57:22;;;;;;;37.10;7.43;;;;;;;14.93;59.50;94403.34;5068181;28;20089;-83
2022/04/25 01:59:48;;;;;;;36.17;7.72;;;;;;;14.99;59.50;94426.88;5068264;28;20028;-83
2022/04/25 02:02:14;;;;;;;28.92;7.05;;;;;;;15.62;59.44;94507.31;5082409;28;20039;-83
2022/04/25 02:04:40;;;;;;;42.83;8.00;;;;;;;15.66;59.45;94495.63;5074624;28;20047;-83
2022/04/25 02:07:07;;;;;;;45.50;8.23;;;;;;;15.66;59.20;94481.50;5068834;28;20047;-83
2022/04/25 02:09:34;;;;;;;35.08;9.05;;;;;;;14.56;61.21;94402.19;5084942;28;20052;-83
2022/04/25 02:11:59;;;;;;;40.90;8.48;;;;;;;14.89;61.52;94461.13;5087789;28;20119;-83
2022/04/25 02:14:28;;;;;;;45.10;8.65;;;;;;;14.62;61.19;94395.56;5085868;28;20498;-83
2022/04/25 02:16:54;;;;;;;31.98;7.70;;;;;;;14.74;61.10;94413.59;5070581;28;20056;-83
2022/04/25 02:19:20;;;;;;;40.25;8.50;;;;;;;14.79;61.63;94464.16;5087738;28;20031;-83
2022/04/25 02:21:45;;;;;;;36.45;8.48;;;;;;;14.93;61.07;94448.72;5084233;28;20119;-84
2022/04/25 02:24:11;;;;;;;46.17;8.45;;;;;;;14.68;61.14;94443.13;5069167;28;20035;-83
2022/04/25 02:26:36;;;;;;;37.22;8.63;;;;;;;14.57;61.21;94420.50;5074356;28;20039;-83
2022/04/25 02:29:02;;;;;;;42.45;8.20;;;;;;;14.19;62.16;94415.03;5089315;28;20051;-84
2022/04/25 02:31:27;;;;;;;30.20;7.53;;;;;;;14.06;62.03;94383.97;5087925;28;20509;-83
2022/04/25 02:33:53;;;;;;;32.97;8.65;;;;;;;14.80;62.02;94487.06;5089634;28;20036;-83
2022/04/25 02:36:18;;;;;;;38.92;7.97;;;;;;;13.96;62.80;94378.19;5087501;28;20040;-83
2022/04/25 02:38:44;;;;;;;38.60;8.02;;;;;;;14.44;62.32;94413.47;5074674;28;20127;-83
2022/04/25 02:41:09;;;;;;;26.25;7.45;;;;;;;14.27;62.80;94434.78;5068584;28;20479;-83
2022/04/25 02:43:40;;;;;;;41.85;8.18;;;;;;;14.28;62.16;94410.47;5067628;28;20036;-83
2022/04/25 02:46:11;;;;;;;38.50;8.48;;;;;;;14.65;62.05;94451.75;5067286;28;20081;-83
2022/04/25 02:48:38;;;;;;;31.20;7.90;;;;;;;14.24;62.71;94422.88;5069162;28;20040;-83
2022/04/25 02:51:05;;;;;;;32.88;8.52;;;;;;;13.22;63.50;94301.00;5067828;28;20050;-83
2022/04/25 02:53:31;;;;;;;33.47;8.60;;;;;;;14.66;63.04;94472.00;5070648;28;20036;-83
2022/04/25 02:55:57;;;;;;;38.67;7.70;;;;;;;13.96;62.72;94346.19;5087213;28;20035;-83
2022/04/25 02:58:23;;;;;;;41.38;8.82;;;;;;;14.00;63.67;94392.44;5087569;28;20040;-82
2022/04/25 03:00:50;;;;;;;31.50;7.40;;;;;;;14.61;63.23;94452.69;5091660;28;20028;-82
2022/04/25 03:03:17;;;;;;;44.95;8.23;;;;;;;14.46;63.41;94451.31;5091835;28;20036;-82
2022/04/25 03:05:44;;;;;;;35.85;8.65;;;;;;;14.34;63.83;94458.34;5082740;28;20066;-82
2022/04/25 03:08:17;;;;;;;30.23;7.82;;;;;;;14.17;63.80;94425.25;5083961;28;20028;-83
2022/04/25 03:10:45;;;;;;;40.05;9.02;;;;;;;14.52;63.19;94459.94;5077245;28;20119;-82
2022/04/25 03:13:12;;;;;;;34.47;7.20;;;;;;;13.91;63.27;94379.91;5070726;28;20448;-83
2022/04/25 03:15:38;;;;;;;30.75;8.25;;;;;;;14.14;64.60;94483.72;5072189;28;20050;-81
2022/04/25 03:18:05;;;;;;;38.80;8.63;;;;;;;14.26;64.29;94467.91;5090088;28;20032;-81
2022/04/25 03:20:31;;;;;;;33.00;8.68;;;;;;;13.91;63.89;94397.78;5089736;28;20063;-83
2022/04/25 03:22:58;;;;;;;35.58;8.23;;;;;;;13.95;64.64;94433.38;5072442;28;21068;-83
2022/04/25 03:25:23;;;;;;;35.08;8.70;;;;;;;13.51;64.18;94349.91;5088624;28;20039;-83
2022/04/25 03:27:49;;;;;;;39.22;8.82;;;;;;;13.70;64.32;94402.16;5075140;28;20023;-83
2022/04/25 03:30:14;;;;;;;44.38;9.63;;;;;;;13.30;65.37;94398.75;5090487;28;20035;-82
2022/04/25 03:32:47;;;;;;;32.65;8.20;;;;;;;13.86;64.40;94444.03;5084740;28;20020;-83
2022/04/25 03:35:18;;;;;;;40.85;8.27;;;;;;;13.82;64.15;94420.97;5071761;28;20040;-83
2022/04/25 03:37:45;;;;;;;40.13;8.38;;;;;;;13.95;63.86;94424.59;5081033;28;20020;-83
2022/04/25 03:40:11;;;;;;;29.35;7.53;;;;;;;13.42;63.64;94357.13;5090670;28;20066;-82
2022/04/25 03:42:38;;;;;;;34.75;8.15;;;;;;;14.36;63.62;94483.59;5090795;28;20077;-83
2022/04/25 03:45:05;;;;;;;39.60;8.43;;;;;;;13.45;64.03;94374.34;5074561;28;20024;-83
2022/04/25 03:47:32;;;;;;;43.65;9.10;;;;;;;13.43;64.29;94419.16;5087375;28;20036;-83
2022/04/25 03:49:58;;;;;;;42.85;9.73;;;;;;;13.30;64.86;94406.75;5089890;28;20063;-83
2022/04/25 03:52:23;;;;;;;40.13;8.90;;;;;;;13.55;63.95;94403.38;5090290;28;20086;-83
2022/04/25 03:57:33;;;;;;;30.45;9.05;;;;;;;14.36;63.57;94509.47;5071307;28;20735;-83
2022/04/25 03:59:58;;;;;;;45.42;9.07;;;;;;;14.33;63.64;94505.56;5078381;28;20028;-83
2022/04/25 04:02:23;;;;;;;45.00;9.13;;;;;;;13.75;63.50;94407.31;5090099;28;20111;-83
2022/04/25 04:04:49;;;;;;;38.00;8.90;;;;;;;13.84;63.28;94402.78;5091025;28;20051;-84
2022/04/25 04:07:15;;;;;;;38.22;9.98;;;;;;;14.07;64.68;94508.19;5077866;28;20612;-83
2022/04/25 04:09:47;;;;;;;41.00;8.85;;;;;;;13.78;65.32;94490.09;5069499;28;20027;-83
2022/04/25 04:12:18;;;;;;;43.25;9.82;;;;;;;13.55;65.03;94461.19;5069293;28;20056;-83
2022/04/25 04:14:44;;;;;;;49.80;9.35;;;;;;;13.92;65.21;94521.97;5088020;28;20028;-83
2022/04/25 04:17:09;;;;;;;43.42;9.73;;;;;;;13.13;64.41;94372.84;5089478;28;20035;-83
2022/04/25 04:19:36;;;;;;;49.15;9.80;;;;;;;13.76;63.89;94446.97;5090691;28;20028;-83
2022/04/25 04:22:03;;;;;;;50.30;9.80;;;;;;;14.02;65.00;94516.34;5090042;28;20108;-83
2022/04/25 04:24:31;;;;;;;36.65;8.40;;;;;;;13.90;64.25;94468.94;5085609;28;20025;-83
2022/04/25 04:27:01;;;;;;;46.53;10.40;;;;;;;14.13;63.80;94487.50;5074852;28;20493;-83
2022/04/25 04:29:30;;;;;;;48.95;9.52;;;;;;;14.12;63.76;94473.38;5090503;28;20604;-84
2022/04/25 04:32:08;;;;;;;51.20;9.85;;;;;;;14.50;63.63;94504.81;5091131;28;20024;-83
2022/04/25 04:34:35;;;;;;;40.20;9.93;;;;;;;13.91;64.03;94454.53;5077263;28;20711;-83
2022/04/25 04:37:02;;;;;;;39.28;9.10;;;;;;;13.76;63.62;94464.84;5082156;28;20129;-83
2022/04/25 04:39:28;;;;;;;40.53;10.23;;;;;;;13.67;64.13;94424.06;5090305;28;20040;-84
2022/04/25 04:41:53;;;;;;;30.08;8.13;;;;;;;14.31;63.49;94521.09;5074258;28;20035;-83
2022/04/25 04:44:19;;;;;;;56.97;9.82;;;;;;;13.41;64.92;94438.13;5087393;28;20406;-83
2022/04/25 04:46:44;;;;;;;50.58;10.45;;;;;;;13.89;64.28;94455.94;5071059;28;20056;-83
2022/04/25 04:49:10;;;;;;;42.85;10.43;;;;;;;14.44;63.85;94535.41;5089329;28;20039;-83
2022/04/25 04:51:36;;;;;;;47.85;10.10;;;;;;;14.56;63.96;94540.94;5090095;28;20024;-83
2022/04/25 04:54:02;;;;;;;33.63;9.18;;;;;;;14.58;63.50;94536.03;5088787;28;20036;-83
2022/04/25 04:56:29;;;;;;;39.60;9.52;;;;;;;14.71;63.37;94553.00;5090500;28;20680;-83
2022/04/25 04:58:55;;;;;;;36.78;8.35;;;;;;;13.35;63.85;94362.09;5084608;28;20036;-83
2022/04/25 05:01:21;;;;;;;37.17;9.60;;;;;;;14.79;63.00;94541.56;5069869;28;20544;-83
2022/04/25 05:03:46;;;;;;;48.85;10.00;;;;;;;14.23;62.62;94449.88;5068517;28;20059;-83
2022/04/25 05:06:12;;;;;;;52.83;10.15;;;;;;;14.81;62.25;94556.13;5068681;28;20032;-83
2022/04/25 05:08:38;;;;;;;32.60;9.73;;;;;;;14.83;61.86;94545.94;5068049;28;20028;-84
2022/04/25 05:11:05;;;;;;;38.95;9.98;;;;;;;14.84;61.43;94546.72;5067620;28;20119;-83
2022/04/25 05:13:31;;;;;;;51.22;10.25;;;;;;;14.34;62.79;94523.16;5080733;28;20044;-83
2022/04/25 05:15:58;;;;;;;55.50;10.82;;;;;;;14.16;63.05;94545.53;5088192;28;20478;-83
2022/04/25 05:18:24;;;;;;;45.60;10.88;;;;;;;14.09;61.99;94513.22;5088645;28;20043;-84
2022/04/25 05:20:50;;;;;;;55.58;10.50;;;;;;;14.09;60.80;94521.22;5073226;28;20052;-83
2022/04/25 05:23:16;;;;;;;52.83;10.00;;;;;;;14.67;60.50;94569.66;5085677;28;20032;-83
2022/04/25 05:25:42;;;;;;;42.72;9.32;;;;;;;14.18;60.65;94493.47;5088009;28;20038;-83
2022/04/25 05:28:07;;;;;;;47.42;9.30;;;;;;;14.52;60.39;94540.75;5089166;28;20050;-83
2022/04/25 05:30:33;;;;;;;45.72;8.77;;;;;;;14.50;59.02;94513.59;5085197;28;20031;-83
2022/04/25 05:33:02;;;;;;;53.45;7.93;;;;;;;14.47;58.60;94505.44;5075779;28;20084;-84
2022/04/25 05:35:33;;;;;;;39.58;9.20;;;;;;;14.34;58.58;94455.69;5090046;28;20367;-83
2022/04/25 05:38:00;;;;;;;45.38;11.05;;;;;;;15.05;59.13;94574.34;5090089;28;20032;-84
2022/04/25 05:40:26;;;;;;;40.75;9.45;;;;;;;14.58;58.79;94504.81;5079104;28;20066;-83
2022/04/25 05:42:54;;;;;;;50.42;9.60;;;;;;;14.87;58.57;94543.44;5079354;28;20062;-83
2022/04/25 05:45:21;;;;;;;58.20;9.60;;;;;;;15.25;58.31;94589.75;5076399;28;20143;-83
2022/04/25 05:47:47;;;;;;;42.67;8.85;;;;;;;15.05;57.97;94534.28;5083108;28;20379;-83
2022/04/25 05:52:59;;;;;;;49.65;8.80;;;;;;;15.35;57.13;94576.03;5089152;28;20110;-83
2022/04/25 05:55:27;;;;;;;42.08;7.68;;;;;;;15.12;56.82;94539.94;5069026;28;20551;-83
2022/04/25 05:57:52;;;;;;;54.58;7.55;;;;;;;15.37;57.24;94565.81;5067831;28;20078;-83
2022/04/25 06:00:18;;;;;;;42.45;7.25;;;;;;;15.56;56.39;94572.72;5067554;28;20075;-83
2022/04/25 06:02:44;;;;;;;47.80;8.40;;;;;;;15.43;56.63;94553.06;5067271;28;20062;-83
2022/04/25 06:05:11;;;;;;;51.88;8.98;;;;;;;15.46;56.71;94560.47;5067226;28;20542;-84
2022/04/25 06:07:41;;;;;;;56.75;8.60;;;;;;;15.59;56.82;94556.81;5074573;28;20023;-83
2022/04/25 06:10:07;;;;;;;38.33;7.07;;;;;;;15.40;55.89;94492.28;5080172;28;20751;-83
2022/04/25 06:12:32;;;;;;;40.85;7.30;;;;;;;15.88;55.33;94529.34;5078829;28;20044;-83
2022/04/25 06:15:00;;;;;;;56.70;7.82;;;;;;;15.71;55.12;94490.13;5088763;28;20501;-83
2022/04/25 06:17:25;;;;;;;41.97;6.85;;;;;;;15.45;55.38;94457.34;5087265;28;20507;-83
2022/04/25 06:19:51;;;;;;;40.88;7.72;;;;;;;15.99;55.27;94532.44;5074926;28;20050;-83
2022/04/25 06:22:20;;;;;;;39.90;6.90;;;;;;;15.77;54.89;94462.09;5067016;28;20081;-83
2022/04/25 06:24:47;;;;;;;45.08;7.55;;;;;;;16.33;54.60;94534.13;5082966;28;20512;-83
2022/04/25 06:27:13;;;;;;;35.08;6.68;;;;;;;15.79;54.94;94464.47;5070334;28;20042;-83
2022/04/25 06:29:44;;;;;;;40.22;7.65;;;;;;;15.97;54.56;94471.25;5086326;28;20060;-83
2022/04/25 06:32:11;;;;;;;29.17;6.82;;;;;;;15.94;54.20;94461.22;5087624;28;20118;-83
2022/04/25 06:34:37;;;;;;;44.05;6.30;;;;;;;15.78;54.15;94465.56;5084789;28;20021;-83
2022/04/25 06:37:02;;;;;;;49.55;7.30;;;;;;;16.51;54.12;94555.13;5072240;28;20043;-83
2022/04/25 06:39:28;;;;;;;47.45;7.40;;;;;;;16.75;54.06;94564.44;5088007;28;20581;-83
2022/04/25 06:41:54;;;;;;;44.10;6.75;;;;;;;16.11;54.45;94497.75;5081782;28;20089;-83
2022/04/25 06:44:19;;;;;;;39.97;6.55;;;;;;;16.16;54.55;94487.69;5068084;28;20079;-83
2022/04/25 06:46:45;;;;;;;34.13;6.55;;;;;;;16.17;54.08;94473.16;5075935;28;20055;-84
2022/04/25 06:49:19;;;;;;;37.97;7.03;;;;;;;16.96;53.61;94568.66;5087361;28;20534;-83
2022/04/25 06:51:45;;;;;;;41.65;7.13;;;;;;;16.73;53.44;94531.84;5076805;28;20036;-84
2022/04/25 06:54:12;;;;;;;30.20;6.22;;;;;;;16.44;53.55;94484.47;5067364;28;20094;-83
2022/04/25 06:56:37;;;;;;;48.72;6.10;;;;;;;17.00;52.98;94533.97;5083178;28;20039;-83
2022/04/25 06:59:03;;;;;;;46.75;6.97;;;;;;;16.68;53.50;94505.28;5087419;28;20036;-83
2022/04/25 07:01:29;;;;;;;40.33;5.85;;;;;;;17.07;53.44;94560.25;5070206;28;20040;-83
2022/04/25 07:03:54;;;;;;;35.20;7.28;;;;;;;16.47;53.13;94473.13;5068709;28;20033;-83
2022/04/25 07:06:20;;;;;;;41.05;7.28;;;;;;;17.13;53.58;94550.88;5067995;28;20101;-83
2022/04/25 07:08:45;;;;;;;51.97;7.75;;;;;;;16.73;53.33;94507.75;5069357;28;20044;-84
2022/04/25 07:11:10;;;;;;;40.33;6.60;;;;;;;16.83;53.13;94492.06;5085803;28;20039;-83
2022/04/25 07:13:36;;;;;;;41.90;6.30;;;;;;;16.85;53.73;94497.88;5068672;28;20059;-83
2022/04/25 07:16:02;;;;;;;40.75;6.10;;;;;;;16.77;53.44;94485.34;5071589;28;20036;-83
2022/04/25 07:18:29;;;;;;;43.33;6.93;;;;;;;16.58;52.62;94444.84;5086986;28;20387;-83
2022/04/25 07:20:55;;;;;;;37.10;6.47;;;;;;;17.47;52.37;94547.84;5088117;28;20039;-83
2022/04/25 07:28:48;;;;;;;43.53;6.38;;;;;;;17.31;50.39;94534.31;5069317;28;20047;-83
2022/04/25 07:31:15;;;;;;;46.55;6.85;;;;;;;16.85;50.73;94457.72;5086427;28;20028;-83
2022/04/25 07:33:43;;;;;;;54.45;7.32;;;;;;;17.55;50.75;94535.47;5071245;28;20041;-83
2022/04/25 07:36:09;;;;;;;41.25;6.97;;;;;;;17.14;49.52;94462.13;5067894;28;20551;-83
2022/04/25 07:38:36;;;;;;;37.30;5.80;;;;;;;16.95;49.36;94427.03;5083202;28;20021;-83
2022/04/25 07:41:02;;;;;;;44.33;6.03;;;;;;;17.66;49.69;94540.09;5066760;28;20120;-83
2022/04/25 07:43:29;;;;;;;46.38;6.55;;;;;;;17.39;49.97;94472.91;5075230;28;20031;-83
2022/04/25 07:45:55;;;;;;;52.97;6.63;;;;;;;17.57;49.52;94490.34;5088841;28;20127;-83
2022/04/25 07:48:21;;;;;;;36.42;5.72;;;;;;;17.84;49.64;94534.56;5091995;28;20457;-83
2022/04/25 07:50:47;;;;;;;63.95;8.35;;;;;;;17.11;49.01;94405.75;5092042;28;20036;-83
2022/04/25 07:53:13;;;;;;;36.50;6.13;;;;;;;18.12;48.59;94527.38;5079222;28;20106;-83
2022/04/25 07:55:39;;;;;;;40.50;5.63;;;;;;;17.60;48.37;94418.09;5069621;28;20484;-83
2022/04/25 07:58:07;;;;;;;38.97;6.13;;;;;;;17.59;46.91;94437.97;5069887;28;20036;-83
2022/04/25 08:00:35;;;;;;;42.70;5.53;;;;;;;17.97;41.92;94467.16;5087860;28;20066;-83
2022/04/25 08:03:01;;;;;;;39.88;5.85;;;;;;;18.05;40.89;94468.94;5090243;28;20036;-83
2022/04/25 08:05:26;;;;;;;46.78;5.55;;;;;;;18.14;37.41;94439.28;5074298;28;20035;-83
2022/04/25 08:07:52;;;;;;;44.92;5.07;;;;;;;18.36;38.01;94438.78;5071678;28;20115;-84
2022/04/25 08:10:17;;;;;;;42.10;5.78;;;;;;;18.61;37.03;94460.22;5090151;28;20470;-83
2022/04/25 08:18:13;;;;;;;50.15;5.07;;;;;;;18.95;37.02;94459.63;5092073;28;20123;-83
2022/04/25 08:20:39;;;;;;;41.85;5.13;;;;;;;19.26;36.66;94500.00;5081151;28;20039;-84
2022/04/25 08:23:09;;;;;;;49.50;5.63;;;;;;;19.26;36.07;94493.84;5082227;28;20032;-83
2022/04/25 08:25:35;;;;;;;45.53;6.63;;;;;;;18.87;36.65;94398.78;5091539;28;20225;-83
2022/04/25 08:28:01;;;;;;;43.50;5.40;;;;;;;19.48;35.53;94508.66;5091626;28;20503;-83
2022/04/25 08:30:28;;;;;;;47.10;6.25;;;;;;;19.35;34.45;94459.53;5075559;28;20509;-83
2022/04/25 08:32:55;;;;;;;42.20;5.60;;;;;;;19.26;35.54;94440.88;5086638;28;20040;-83
2022/04/25 08:35:21;;;;;;;48.97;5.68;;;;;;;19.07;35.46;94395.06;5073387;28;20028;-83
2022/04/25 08:37:48;;;;;;;50.63;5.40;;;;;;;19.76;36.82;94487.09;5092084;28;20474;-83
2022/04/25 08:40:14;;;;;;;46.67;5.28;;;;;;;19.82;36.69;94486.47;5093092;28;20040;-83
2022/04/25 08:42:39;;;;;;;47.45;5.40;;;;;;;19.54;35.65;94418.53;5094012;28;20028;-83
2022/04/25 08:45:09;;;;;;;45.78;5.90;;;;;;;19.15;35.08;94378.00;5105969;28;20032;-83
2022/04/25 08:47:45;;;;;;;42.15;5.22;;;;;;;19.92;34.31;94469.00;5090678;28;20124;-83
2022/04/25 08:50:11;;;;;;;44.05;5.03;;;;;;;19.71;34.49;94437.00;5086646;28;20036;-83
2022/04/25 08:52:38;;;;;;;40.05;5.55;;;;;;;19.85;33.56;94475.00;5096318;28;20032;-83
2022/04/25 08:55:05;;;;;;;40.65;5.30;;;;;;;19.37;31.52;94379.31;5080900;28;20475;-82
2022/04/25 08:57:35;;;;;;;32.15;4.68;;;;;;;20.00;31.27;94486.88;5086457;28;20035;-82
2022/04/25 09:00:04;;;;;;;38.95;4.43;;;;;;;19.83;31.89;94449.59;5093581;28;20026;-83
2022/04/25 09:02:30;;;;;;;52.20;5.10;;;;;;;20.27;31.19;94485.19;5089734;28;20044;-83
2022/04/25 09:04:56;;;;;;;24.08;3.95;;;;;;;19.41;31.30;94341.75;5070201;28;20490;-83
2022/04/25 09:07:22;;;;;;;51.53;5.50;;;;;;;20.02;32.00;94436.97;5088925;28;20126;-83
2022/04/25 09:09:48;;;;;;;32.88;4.93;;;;;;;19.98;31.90;94398.44;5086647;28;20028;-82
2022/04/25 09:12:14;;;;;;;37.53;4.28;;;;;;;20.04;31.93;94469.69;5073033;28;20097;-83
2022/04/25 09:14:45;;;;;;;36.60;5.10;;;;;;;19.98;31.47;94427.25;5088429;28;20050;-84
2022/04/25 09:17:11;;;;;;;39.28;4.40;;;;;;;20.33;30.99;94456.84;5090092;28;20302;-84
2022/04/25 09:19:37;;;;;;;37.72;4.28;;;;;;;20.17;31.24;94429.19;5089510;28;20066;-84
2022/04/25 09:22:05;;;;;;;45.58;5.00;;;;;;;20.49;31.50;94465.69;5089923;28;20054;-83
2022/04/25 09:24:36;;;;;;;35.28;4.55;;;;;;;20.61;31.35;94444.00;5088779;28;20074;-83
2022/04/25 09:27:10;;;;;;;42.65;5.10;;;;;;;20.57;31.34;94467.41;5088913;28;20036;-84
2022/04/25 09:29:37;;;;;;;32.38;5.10;;;;;;;20.68;31.66;94473.00;5073881;28;20502;-84
2022/04/25 09:32:04;;;;;;;32.72;3.85;;;;;;;19.98;29.66;94366.13;5083457;28;20508;-83
2022/04/25 09:37:16;;;;;;;34.92;4.90;;;;;;;20.67;30.78;94445.28;5089760;28;20035;-83
2022/04/25 09:39:42;;;;;;;40.13;4.45;;;;;;;20.43;31.33;94397.09;5086090;28;20576;-83
2022/04/25 09:42:08;;;;;;;25.10;4.40;;;;;;;20.31;30.41;94365.66;5072951;28;20040;-83
2022/04/25 09:44:56;;;;;;;28.75;3.70;;;;;;;20.84;29.11;94462.94;5083587;28;20060;-83
2022/04/25 09:47:33;;;;;;;24.50;3.70;;;;;;;20.92;30.09;94455.78;5078048;28;20032;-84
2022/04/25 09:50:08;;;;;;;33.95;5.13;;;;;;;21.15;29.58;94464.69;5089028;28;20096;-83
2022/04/25 09:52:53;;;;;;;40.53;4.35;;;;;;;21.48;28.70;94413.69;5088316;28;20032;-83
2022/04/25 09:55:20;;;;;;;31.15;4.28;;;;;;;22.57;27.44;94446.19;5088146;28;20024;-84
2022/04/25 09:57:46;;;;;;;30.63;3.35;;;;;;;22.44;23.70;94385.38;5087924;28;20507;-83
2022/04/25 10:00:28;;;;;;;34.63;4.00;;;;;;;23.37;23.93;94423.13;5070448;28;20567;-83
2022/04/25 10:02:54;;;;;;;23.45;3.30;;;;;;;23.02;23.97;94358.66;5089644;28;20028;-83
2022/04/25 10:05:20;;;;;;;28.67;3.60;;;;;;;22.97;24.29;94413.06;5082108;28;20606;-83
2022/04/25 10:07:46;;;;;;;31.83;4.07;;;;;;;23.28;23.52;94387.47;5067403;28;20449;-84
2022/04/25 10:10:12;;;;;;;28.98;3.58;;;;;;;24.06;22.68;94441.50;5068794;28;20090;-84
2022/04/25 10:12:39;;;;;;;36.25;4.05;;;;;;;24.18;23.19;94424.97;5067665;28;20053;-84
2022/04/25 10:15:06;;;;;;;34.03;4.20;;;;;;;24.93;22.44;94426.94;5069735;28;20035;-83
2022/04/25 10:17:32;;;;;;;24.42;3.65;;;;;;;24.90;21.51;94351.75;5082237;28;20086;-83
2022/04/25 10:20:02;;;;;;;21.23;3.15;;;;;;;25.44;21.01;94452.25;5071802;28;20070;-83
2022/04/25 10:22:28;;;;;;;23.75;3.67;;;;;;;25.43;21.03;94405.31;5067374;28;20032;-84
2022/04/25 10:24:53;;;;;;;28.00;3.78;;;;;;;25.06;20.23;94316.13;5087058;28;20036;-83
2022/04/25 10:27:27;;;;;;;32.83;3.20;;;;;;;25.73;19.76;94399.53;5088070;28;20141;-84
2022/04/25 10:29:55;;;;;;;17.33;3.40;;;;;;;26.33;21.00;94425.91;5071328;28;20639;-84
2022/04/25 10:32:24;;;;;;;28.08;3.40;;;;;;;25.98;19.79;94448.44;5082771;28;20035;-84
2022/04/25 10:34:53;;;;;;;21.48;3.20;;;;;;;25.57;19.39;94437.91;5075688;28;20027;-84
2022/04/25 10:37:43;;;;;;;25.45;3.70;;;;;;;25.35;19.66;94360.34;5079760;28;20040;-83
2022/04/25 10:40:17;;;;;;;31.90;3.55;;;;;;;26.42;20.06;94415.41;5068951;28;20025;-83
2022/04/25 10:45:58;;;;;;;25.90;3.55;;;;;;;26.88;19.41;94429.63;5056164;28;20097;-83
2022/04/25 10:48:25;;;;;;;28.80;3.50;;;;;;;26.49;19.09;94420.81;5083169;28;20025;-84
2022/04/25 10:51:13;;;;;;;31.15;3.72;;;;;;;26.40;18.59;94436.75;5076525;28;20020;-84
2022/04/25 10:54:02;;;;;;;23.50;3.70;;;;;;;26.51;18.30;94429.34;5076905;28;20051;-84
2022/04/25 10:56:28;;;;;;;28.45;3.30;;;;;;;25.97;19.12;94368.09;5083565;28;20061;-83
2022/04/25 10:59:22;;;;;;;31.15;3.53;;;;;;;26.65;19.87;94418.44;5089357;28;20081;-83
2022/04/25 11:01:49;;;;;;;24.63;4.00;;;;;;;26.04;19.28;94365.38;5084456;28;20035;-84
2022/04/25 11:04:15;;;;;;;21.70;3.05;;;;;;;26.41;19.83;94422.00;5072650;28;20028;-84
2022/04/25 11:06:41;;;;;;;29.05;4.28;;;;;;;25.63;20.06;94403.06;5087918;28;20059;-84
2022/04/25 11:09:07;;;;;;;20.17;3.40;;;;;;;24.91;20.13;94387.78;5087476;28;20078;-84
2022/04/25 11:11:53;;;;;;;27.33;3.10;;;;;;;24.73;20.11;94386.91;5079837;28;20035;-83
2022/04/25 11:14:19;;;;;;;26.58;3.55;;;;;;;25.39;19.84;94458.84;5068999;28;20059;-83
2022/04/25 11:17:06;;;;;;;26.13;3.25;;;;;;;25.63;18.58;94428.25;5067023;28;20028;-84
2022/04/25 11:19:51;;;;;;;23.77;4.10;;;;;;;25.78;18.63;94398.41;5086390;28;20492;-84
2022/04/25 11:22:38;;;;;;;27.33;3.30;;;;;;;26.23;19.29;94437.56;5054438;28;20429;-84
2022/04/25 11:25:25;;;;;;;26.88;3.40;;;;;;;26.05;18.89;94432.91;5080033;28;20777;-82
2022/04/25 11:28:11;;;;;;;26.58;4.10;;;;;;;25.52;20.08;94432.88;5093008;28;20048;-83
2022/04/25 11:30:38;;;;;;;21.42;2.75;;;;;;;25.43;19.77;94429.75;5073654;28;20123;-82
2022/04/25 11:33:09;;;;;;;27.75;3.67;;;;;;;25.54;23.55;94364.63;5072456;28;20521;-84
2022/04/25 11:35:34;;;;;;;23.67;4.23;;;;;;;25.17;23.97;94211.13;5072092;28;20029;-83
2022/04/25 11:38:00;;;;;;;21.77;3.45;;;;;;;26.95;22.90;94411.72;5089887;28;20034;-83
2022/04/25 11:40:27;;;;;;;30.30;3.63;;;;;;;26.90;21.79;94325.88;5074689;28;20032;-83
2022/04/25 11:42:53;;;;;;;29.38;3.60;;;;;;;27.48;22.19;94341.41;5091217;28;20032;-83
2022/04/25 11:45:19;;;;;;;21.27;3.78;;;;;;;28.15;20.78;94394.59;5085601;28;20677;-83
2022/04/25 11:47:45;;;;;;;22.33;2.92;;;;;;;27.93;20.66;94379.56;5078563;28;20032;-82
2022/04/25 11:50:11;;;;;;;16.20;2.75;;;;;;;28.13;20.31;94412.50;5084959;28;20032;-83
2022/04/25 11:52:54;;;;;;;19.88;2.55;;;;;;;28.57;20.00;94428.84;5081402;28;20064;-83